createdAt,value
2018-04-10T00:01:07.923Z,31.60
2018-04-10T00:04:13.096Z,31.53
2018-04-10T00:07:17.730Z,31.23
2018-04-10T00:10:22.360Z,30.97
2018-04-10T00:13:27.538Z,31.70
2018-04-10T00:16:31.961Z,30.53
2018-04-10T00:19:37.129Z,33.17
2018-04-10T00:22:41.612Z,31.47
2018-04-10T00:25:46.060Z,32.40
2018-04-10T00:28:50.511Z,31.23
2018-04-10T00:31:54.970Z,32.77
2018-04-10T00:35:00.223Z,30.80
2018-04-10T00:38:05.384Z,32.07
2018-04-10T00:41:10.574Z,31.77
2018-04-10T00:44:14.994Z,30.60
2018-04-10T00:47:19.500Z,30.40
2018-04-10T00:50:23.931Z,35.47
2018-04-10T00:53:37.705Z,32.03
2018-04-10T00:56:43.593Z,33.00
2018-04-10T00:59:48.760Z,33.50
2018-04-10T01:02:53.175Z,32.50
2018-04-10T01:05:57.619Z,32.00
2018-04-10T01:09:02.813Z,31.87
2018-04-10T01:12:07.213Z,33.67
2018-04-10T01:15:12.397Z,31.73
2018-04-10T01:18:16.806Z,32.37
2018-04-10T01:21:21.236Z,31.90
2018-04-10T01:24:25.673Z,31.47
2018-04-10T01:27:30.139Z,32.97
2018-04-10T01:30:35.319Z,32.20
2018-04-10T01:33:39.718Z,32.63
2018-04-10T01:36:44.900Z,32.47
2018-04-10T01:39:50.073Z,32.07
2018-04-10T01:42:54.481Z,32.93
2018-04-10T01:45:59.665Z,32.10
2018-04-10T01:49:04.071Z,31.73
2018-04-10T01:52:09.246Z,30.50
2018-04-10T01:55:13.673Z,31.73
2018-04-10T01:58:18.823Z,30.10
2018-04-10T02:01:23.989Z,29.43
2018-04-10T02:04:28.404Z,29.83
2018-04-10T02:07:32.847Z,27.93
2018-04-10T02:10:37.271Z,29.47
2018-04-10T02:13:41.676Z,27.90
2018-04-10T02:16:46.115Z,26.73
2018-04-10T02:19:50.632Z,27.03
2018-04-10T02:22:55.064Z,24.70
2018-04-10T02:25:59.508Z,24.73
2018-04-10T02:29:03.917Z,24.53
2018-04-10T02:32:08.374Z,23.10
2018-04-10T02:35:13.548Z,22.33
2018-04-10T02:38:17.969Z,22.83
2018-04-10T02:41:23.196Z,20.10
2018-04-10T02:44:27.621Z,19.90
2018-04-10T02:47:32.128Z,20.73
2018-04-10T02:50:36.568Z,19.20
2018-04-10T02:53:40.979Z,19.67
2018-04-10T02:56:46.152Z,19.30
2018-04-10T02:59:50.558Z,18.23
2018-04-10T03:02:55.044Z,18.80
2018-04-10T03:05:59.484Z,18.53
2018-04-10T03:09:03.903Z,16.90
2018-04-10T03:12:08.343Z,17.20
2018-04-10T03:15:12.760Z,16.90
2018-04-10T03:18:17.937Z,15.90
2018-04-10T03:21:22.374Z,14.87
2018-04-10T03:24:26.778Z,15.43
2018-04-10T03:27:31.205Z,14.90
2018-04-10T03:30:35.634Z,14.53
2018-04-10T03:33:40.066Z,15.17
2018-04-10T03:36:44.528Z,14.77
2018-04-10T03:39:48.921Z,13.90
2018-04-10T03:42:53.358Z,14.07
2018-04-10T03:45:57.782Z,13.97
2018-04-10T03:49:02.213Z,15.17
2018-04-10T03:52:07.390Z,15.23
2018-04-10T03:55:11.794Z,14.17
2018-04-10T03:58:16.970Z,15.23
2018-04-10T04:01:21.403Z,15.37
2018-04-10T04:04:26.545Z,14.50
2018-04-10T04:07:30.989Z,15.30
2018-04-10T04:10:36.141Z,14.97
2018-04-10T04:13:40.571Z,14.57
2018-04-10T04:17:08.771Z,14.30
2018-04-10T04:20:36.987Z,14.37
2018-04-10T04:23:42.163Z,13.40
2018-04-10T04:26:46.593Z,13.50
2018-04-10T04:29:51.026Z,13.90
2018-04-10T04:32:56.209Z,13.47
2018-04-10T04:36:00.626Z,13.27
2018-04-10T04:39:05.063Z,12.70
2018-04-10T04:42:09.495Z,12.70
2018-04-10T04:45:14.643Z,13.13
2018-04-10T04:48:19.825Z,12.07
2018-04-10T04:51:24.230Z,12.10
2018-04-10T04:54:29.406Z,12.90
2018-04-10T04:57:34.689Z,14.40
2018-04-10T05:00:39.094Z,13.37
2018-04-10T05:03:44.269Z,13.73
2018-04-10T05:06:48.700Z,12.60
2018-04-10T05:09:53.106Z,13.30
2018-04-10T05:12:57.553Z,11.93
2018-04-10T05:16:01.961Z,11.47
2018-04-10T05:19:06.397Z,13.00
2018-04-10T05:22:10.830Z,11.90
2018-04-10T05:25:15.233Z,11.97
2018-04-10T05:28:19.663Z,12.73
2018-04-10T05:31:24.812Z,12.60
2018-04-10T05:34:29.991Z,12.30
2018-04-10T05:37:34.431Z,11.27
2018-04-10T05:40:38.833Z,11.07
2018-04-10T05:43:43.273Z,11.93
2018-04-10T05:46:47.681Z,11.63
2018-04-10T05:49:52.110Z,12.83
2018-04-10T05:52:56.548Z,11.53
2018-04-10T05:56:00.966Z,12.47
2018-04-10T05:59:05.394Z,11.47
2018-04-10T06:02:09.842Z,12.13
2018-04-10T06:05:14.253Z,11.63
2018-04-10T06:08:18.678Z,12.23
2018-04-10T06:11:23.148Z,12.67
2018-04-10T06:14:28.330Z,12.10
2018-04-10T06:17:32.776Z,12.17
2018-04-10T06:20:37.186Z,12.83
2018-04-10T06:23:42.353Z,12.73
2018-04-10T06:26:46.769Z,13.10
2018-04-10T06:29:51.940Z,13.23
2018-04-10T06:32:56.577Z,13.60
2018-04-10T06:36:01.741Z,13.97
2018-04-10T06:39:07.029Z,15.00
2018-04-10T06:42:11.439Z,15.40
2018-04-10T06:45:15.869Z,15.43
2018-04-10T06:48:21.041Z,15.77
2018-04-10T06:51:25.450Z,15.63
2018-04-10T06:54:30.626Z,15.40
2018-04-10T06:57:35.041Z,15.63
2018-04-10T07:00:39.470Z,16.60
2018-04-10T07:03:43.902Z,15.47
2018-04-10T07:06:48.314Z,17.20
2018-04-10T07:09:52.742Z,16.67
2018-04-10T07:12:57.197Z,17.57
2018-04-10T07:16:01.622Z,17.97
2018-04-10T07:19:06.051Z,17.03
2018-04-10T07:22:10.458Z,16.40
2018-04-10T07:25:15.635Z,18.30
2018-04-10T07:28:20.064Z,18.47
2018-04-10T07:31:25.212Z,19.20
2018-04-10T07:34:30.390Z,21.40
2018-04-10T07:37:34.797Z,21.47
2018-04-10T07:40:39.233Z,24.53
2018-04-10T07:43:43.662Z,24.80
2018-04-10T07:46:48.083Z,23.90
2018-04-10T07:49:52.566Z,24.00
2018-04-10T07:52:57.734Z,22.97
2018-04-10T07:56:02.165Z,24.43
2018-04-10T07:59:06.659Z,24.07
2018-04-10T08:02:11.075Z,24.33
2018-04-10T08:05:15.498Z,24.43
2018-04-10T08:08:19.958Z,25.60
2018-04-10T08:11:24.373Z,24.30
2018-04-10T08:14:28.886Z,26.40
2018-04-10T08:17:33.334Z,27.40
2018-04-10T08:20:38.501Z,25.63
2018-04-10T08:23:43.682Z,25.97
2018-04-10T08:26:48.102Z,26.33
2018-04-10T08:29:52.593Z,26.17
2018-04-10T08:32:57.016Z,27.70
2018-04-10T08:36:01.452Z,27.90
2018-04-10T08:39:08.675Z,26.10
2018-04-10T08:42:13.108Z,25.60
2018-04-10T08:45:17.551Z,25.30
2018-04-10T08:48:21.962Z,25.20
2018-04-10T08:51:26.401Z,25.60
2018-04-10T08:54:30.894Z,25.00
2018-04-10T08:57:35.306Z,23.00
2018-04-10T09:00:39.755Z,22.07
2018-04-10T09:03:44.183Z,20.20
2018-04-10T09:06:48.589Z,20.50
2018-04-10T09:09:53.021Z,19.10
2018-04-10T09:12:57.439Z,18.87
2018-04-10T09:16:02.625Z,18.83
2018-04-10T09:19:07.058Z,17.83
2018-04-10T09:22:11.469Z,17.53
2018-04-10T09:25:16.658Z,17.33
2018-04-10T09:28:21.083Z,17.07
2018-04-10T09:31:25.560Z,16.77
2018-04-10T09:34:30.056Z,16.30
2018-04-10T09:37:35.223Z,16.17
2018-04-10T09:40:39.654Z,16.20
2018-04-10T09:43:44.862Z,14.83
2018-04-10T09:46:49.265Z,15.50
2018-04-10T09:49:53.695Z,15.57
2018-04-10T09:52:58.111Z,14.30
2018-04-10T09:56:03.298Z,14.60
2018-04-10T09:59:07.700Z,15.10
2018-04-10T10:02:12.135Z,14.23
2018-04-10T10:05:18.317Z,13.37
2018-04-10T10:08:22.728Z,12.83
2018-04-10T10:11:27.205Z,12.40
2018-04-10T10:14:32.385Z,11.83
2018-04-10T10:17:36.829Z,11.13
2018-04-10T10:20:41.255Z,10.83
2018-04-10T10:23:49.466Z,10.07
2018-04-10T10:26:54.650Z,11.37
2018-04-10T10:29:59.202Z,12.87
2018-04-10T10:33:03.663Z,12.67
2018-04-10T10:36:08.095Z,17.50
2018-04-10T10:39:12.561Z,21.37
2018-04-10T10:42:16.970Z,18.93
2018-04-10T10:45:21.403Z,22.03
2018-04-10T10:48:25.821Z,20.63
2018-04-10T10:51:30.275Z,17.57
2018-04-10T10:54:34.726Z,17.80
2018-04-10T10:57:39.171Z,15.50
2018-04-10T11:00:43.629Z,13.93
2018-04-10T11:03:48.049Z,14.77
2018-04-10T11:06:52.522Z,13.47
2018-04-10T11:09:56.958Z,14.77
2018-04-10T11:13:01.377Z,13.53
2018-04-10T11:16:05.813Z,13.63
2018-04-10T11:19:10.228Z,14.20
2018-04-10T11:22:14.664Z,17.10
2018-04-10T11:25:19.628Z,15.83
2018-04-10T11:28:24.037Z,15.83
2018-04-10T11:31:28.478Z,13.53
2018-04-10T11:34:32.900Z,12.97
2018-04-10T11:37:38.083Z,12.20
2018-04-10T11:40:42.518Z,12.03
2018-04-10T11:43:46.937Z,12.33
2018-04-10T11:46:52.120Z,12.23
2018-04-10T11:49:56.522Z,12.30
2018-04-10T11:53:01.894Z,12.03
2018-04-10T11:56:06.332Z,18.47
2018-04-10T11:59:11.491Z,16.83
2018-04-10T12:02:15.934Z,14.73
2018-04-10T12:05:20.366Z,12.13
2018-04-10T12:08:25.537Z,11.37
2018-04-10T12:11:29.978Z,12.20
2018-04-10T12:14:34.396Z,11.10
2018-04-10T12:17:39.593Z,11.43
2018-04-10T12:20:44.026Z,12.10
2018-04-10T12:23:48.438Z,12.90
2018-04-10T12:26:52.873Z,12.33
2018-04-10T12:29:57.286Z,11.67
2018-04-10T12:33:01.710Z,11.63
2018-04-10T12:36:06.178Z,12.10
2018-04-10T12:39:11.348Z,11.37
2018-04-10T12:42:15.796Z,10.43
2018-04-10T12:45:20.193Z,12.67
2018-04-10T12:48:24.634Z,12.47
2018-04-10T12:51:29.078Z,12.80
2018-04-10T12:54:33.499Z,12.83
2018-04-10T12:57:37.959Z,12.77
2018-04-10T13:00:43.126Z,12.80
2018-04-10T13:03:48.300Z,12.47
2018-04-10T13:06:52.726Z,13.27
2018-04-10T13:09:57.907Z,13.73
2018-04-10T13:13:02.349Z,13.43
2018-04-10T13:16:06.781Z,13.80
2018-04-10T13:19:11.223Z,10.67
2018-04-10T13:22:15.658Z,45.37
2018-04-10T13:25:20.809Z,61.53
2018-04-10T13:28:25.238Z,56.37
2018-04-10T13:31:29.702Z,53.47
2018-04-10T13:34:34.142Z,51.03
2018-04-10T13:37:38.570Z,48.87
2018-04-10T13:40:43.008Z,45.77
2018-04-10T13:43:47.450Z,42.87
2018-04-10T13:46:51.912Z,43.30
2018-04-10T13:49:56.412Z,41.40
2018-04-10T13:53:01.611Z,36.10
2018-04-10T13:56:06.038Z,37.23
2018-04-10T13:59:10.486Z,57.97
2018-04-10T14:02:14.928Z,66.40
2018-04-10T14:05:20.042Z,56.00
2018-04-10T14:08:25.248Z,52.03
2018-04-10T14:11:29.709Z,45.33
2018-04-10T14:14:34.115Z,54.63
2018-04-10T14:17:38.556Z,76.13
2018-04-10T14:20:42.965Z,78.10
2018-04-10T14:23:47.396Z,81.97
2018-04-10T14:26:52.649Z,70.80
2018-04-10T14:29:57.064Z,70.83
2018-04-10T14:33:01.631Z,67.03
2018-04-10T14:36:06.790Z,59.67
2018-04-10T14:39:11.973Z,60.90
2018-04-10T14:42:16.586Z,52.63
2018-04-10T14:45:21.790Z,48.87
2018-04-10T14:48:26.222Z,50.10
2018-04-10T14:51:30.801Z,43.20
2018-04-10T14:54:35.235Z,45.77
2018-04-10T14:57:39.668Z,69.40
2018-04-10T15:00:44.082Z,112.07
2018-04-10T15:03:48.539Z,108.97
2018-04-10T15:06:53.153Z,105.97
2018-04-10T15:09:57.616Z,96.40
2018-04-10T15:13:02.649Z,91.70
2018-04-10T15:16:07.734Z,83.50
2018-04-10T15:19:12.167Z,78.97
2018-04-10T15:22:16.643Z,67.30
2018-04-10T15:25:21.057Z,60.70
2018-04-10T15:28:25.494Z,56.93
2018-04-10T15:31:29.923Z,51.90
2018-04-10T15:34:34.383Z,47.93
2018-04-10T15:37:38.834Z,39.97
2018-04-10T15:40:43.989Z,40.33
2018-04-10T15:43:49.172Z,37.20
2018-04-10T15:46:53.590Z,66.13
2018-04-10T15:49:58.842Z,127.00
2018-04-10T15:53:03.307Z,97.57
2018-04-10T15:56:07.741Z,86.97
2018-04-10T15:59:12.182Z,80.70
2018-04-10T16:02:17.366Z,77.93
2018-04-10T16:05:22.558Z,114.93
2018-04-10T16:08:27.095Z,124.27
2018-04-10T16:11:31.662Z,114.20
2018-04-10T16:14:36.501Z,106.70
2018-04-10T16:17:41.218Z,102.17
2018-04-10T16:20:46.517Z,85.97
2018-04-10T16:23:51.742Z,80.30
2018-04-10T16:26:56.217Z,64.80
2018-04-10T16:30:00.771Z,59.73
2018-04-10T16:33:05.257Z,51.93
2018-04-10T16:36:09.705Z,46.50
2018-04-10T16:39:14.191Z,42.37
2018-04-10T16:42:19.373Z,38.07
2018-04-10T16:45:23.825Z,36.57
2018-04-10T16:48:28.867Z,35.00
2018-04-10T16:51:34.128Z,28.43
2018-04-10T16:54:38.763Z,28.17
2018-04-10T16:57:43.241Z,24.27
2018-04-10T17:00:47.821Z,19.17
2018-04-10T17:03:53.016Z,16.17
2018-04-10T17:06:57.565Z,12.70
2018-04-10T17:10:02.357Z,10.20
2018-04-10T17:13:07.586Z,9.20
2018-04-10T17:16:12.092Z,9.40
2018-04-10T17:19:16.539Z,9.23
2018-04-10T17:22:21.017Z,8.67
2018-04-10T17:25:25.517Z,8.13
2018-04-10T17:28:31.093Z,7.93
2018-04-10T17:31:35.534Z,7.20
2018-04-10T17:34:40.048Z,6.97
2018-04-10T17:37:44.510Z,6.67
2018-04-10T17:40:48.996Z,6.50
2018-04-10T17:43:53.467Z,6.20
2018-04-10T17:46:58.643Z,6.63
2018-04-10T17:50:03.181Z,6.17
2018-04-10T17:53:07.642Z,5.70
2018-04-10T17:56:12.161Z,5.60
2018-04-10T17:59:16.609Z,5.10
2018-04-10T18:02:21.131Z,5.10
2018-04-10T18:05:26.397Z,4.30
2018-04-10T18:08:33.003Z,4.60
2018-04-10T18:11:37.519Z,4.73
2018-04-10T18:14:42.479Z,4.70
2018-04-10T18:17:47.014Z,4.37
2018-04-10T18:20:51.712Z,4.40
2018-04-10T18:23:56.174Z,3.87
2018-04-10T18:27:01.395Z,4.50
2018-04-10T18:30:05.876Z,4.23
2018-04-10T18:33:11.077Z,4.20
2018-04-10T18:36:15.536Z,3.97
2018-04-10T18:39:20.035Z,3.90
2018-04-10T18:42:24.463Z,15.47
2018-04-10T18:45:29.670Z,47.87
2018-04-10T18:48:34.162Z,54.60
2018-04-10T18:51:38.645Z,47.83
2018-04-10T18:54:43.216Z,44.33
2018-04-10T18:57:47.702Z,38.00
2018-04-10T19:00:52.252Z,38.53
2018-04-10T19:03:56.671Z,34.23
2018-04-10T19:07:01.915Z,31.20
2018-04-10T19:10:07.142Z,28.43
2018-04-10T19:13:11.569Z,29.17
2018-04-10T19:16:16.025Z,25.90
2018-04-10T19:19:20.507Z,19.80
2018-04-10T19:22:25.687Z,15.20
2018-04-10T19:25:30.124Z,12.97
2018-04-10T19:28:34.563Z,12.23
2018-04-10T19:31:39.025Z,12.07
2018-04-10T19:34:43.487Z,9.43
2018-04-10T19:37:47.913Z,12.43
2018-04-10T19:40:52.420Z,23.47
2018-04-10T19:43:56.811Z,56.23
2018-04-10T19:47:01.593Z,46.87
2018-04-10T19:50:06.119Z,48.27
2018-04-10T19:53:11.356Z,38.90
2018-04-10T19:56:15.794Z,35.77
2018-04-10T19:59:20.298Z,24.23
2018-04-10T20:02:24.832Z,41.23
2018-04-10T20:05:29.454Z,63.20
2018-04-10T20:08:33.966Z,65.40
2018-04-10T20:11:38.566Z,43.93
2018-04-10T20:14:43.118Z,44.60
2018-04-10T20:17:47.600Z,44.33
2018-04-10T20:20:52.806Z,42.53
2018-04-10T20:23:57.272Z,41.50
2018-04-10T20:27:01.836Z,40.53
2018-04-10T20:30:06.366Z,38.67
2018-04-10T20:33:10.871Z,37.57
2018-04-10T20:36:15.349Z,38.23
2018-04-10T20:39:19.856Z,37.97
2018-04-10T20:42:24.340Z,37.97
2018-04-10T20:45:28.866Z,40.20
2018-04-10T20:48:33.761Z,45.43
2018-04-10T20:51:38.523Z,42.93
2018-04-10T20:54:43.261Z,41.53
2018-04-10T20:57:47.791Z,39.37
2018-04-10T21:00:52.330Z,39.97
2018-04-10T21:03:56.837Z,39.50
2018-04-10T21:07:01.427Z,38.20
2018-04-10T21:10:05.976Z,43.33
2018-04-10T21:13:11.203Z,44.63
2018-04-10T21:16:15.712Z,40.40
2018-04-10T21:19:20.203Z,28.53
2018-04-10T21:22:24.662Z,24.57
2018-04-10T21:25:30.161Z,20.57
2018-04-10T21:28:35.124Z,18.20
2018-04-10T21:31:39.682Z,18.57
2018-04-10T21:34:44.308Z,15.03
2018-04-10T21:37:49.522Z,10.97
2018-04-10T21:40:54.033Z,9.57
2018-04-10T21:43:58.540Z,7.90
2018-04-10T21:47:03.309Z,6.73
2018-04-10T21:50:07.949Z,6.90
2018-04-10T21:53:13.237Z,5.30
2018-04-10T21:56:17.697Z,5.90
2018-04-10T21:59:22.209Z,5.40
2018-04-10T22:02:26.672Z,4.50
2018-04-10T22:05:31.829Z,4.87
2018-04-10T22:08:37.239Z,4.03
2018-04-10T22:11:42.544Z,4.00
2018-04-10T22:14:47.976Z,3.50
2018-04-10T22:17:52.641Z,3.50
2018-04-10T22:20:57.155Z,3.70
2018-04-10T22:24:01.794Z,3.07
2018-04-10T22:27:06.382Z,3.30
2018-04-10T22:30:11.125Z,6.90
2018-04-10T22:33:15.560Z,3.53
2018-04-10T22:36:20.970Z,3.80
2018-04-10T22:39:25.487Z,4.13
2018-04-10T22:42:30.237Z,4.17
2018-04-10T22:45:34.795Z,3.97
2018-04-10T22:48:39.353Z,3.60
2018-04-10T22:51:44.028Z,3.70
2018-04-10T22:54:49.255Z,3.50
2018-04-10T22:57:53.832Z,2.97
2018-04-10T23:00:58.333Z,3.40
2018-04-10T23:04:02.957Z,3.13
2018-04-10T23:07:07.607Z,2.80
2018-04-10T23:10:12.046Z,3.20
2018-04-10T23:13:16.513Z,3.23
2018-04-10T23:16:21.097Z,3.27
2018-04-10T23:19:25.564Z,4.97
2018-04-10T23:22:31.221Z,5.27
2018-04-10T23:25:36.555Z,4.80
2018-04-10T23:28:41.663Z,4.73
2018-04-10T23:31:47.237Z,3.60
2018-04-10T23:34:52.433Z,3.73
2018-04-10T23:37:56.978Z,3.60
2018-04-10T23:41:01.422Z,5.07
2018-04-10T23:44:05.887Z,5.07
2018-04-10T23:47:10.362Z,5.27
2018-04-10T23:50:14.792Z,4.10
2018-04-10T23:53:19.278Z,3.97
2018-04-10T23:56:23.712Z,3.43
2018-04-10T23:59:28.198Z,3.40
